Terminal Aerodrome Forecast
Issued by NWS

Home | Current Version | Previous Version | Text Only | Print | Product List | Glossary On
Versions: 1 2 3 4 5 6 7 8 9 10 11 12 13 14 15 16 17 18 19 20 21 22 23 24 25 26 27 28
000
FTUS41 KBUF 052320
TAFJHW
TAF
KJHW 052320Z 0600/0624 02007KT P6SM BKN040
     FM060300 36005KT P6SM BKN100
     FM061400 02010KT P6SM SCT200
     FM061800 01014G22KT P6SM BKN120
      AMD LTD TO CLD VIS AND WIND=

USA.gov is the U.S. government's official web portal to all federal, state and local government web resources and services.